Time;durP1;ratioP1;P1;durP2;ratioP2;P2;SDS_P1;SDS_P2;PMS_P1;PMS_P2;Temp;Humidity;BMP_temperature;BMP_pressure;BME280_temperature;BME280_humidity;BME280_pressure;Samples;Min_cycle;Max_cycle;Signal;HPM_P1;HPM_P2
2022/09/10 00:01:00;;;;;;;;;;;;;;;;;;5025603;28;19947;-76
2022/09/10 00:03:26;;;;;;;;;;;;;;;;;;5025327;28;19983;-76
2022/09/10 00:05:52;;;;;;;;;;;;;;;;;;5026107;28;19924;-76
2022/09/10 00:08:18;;;;;;;;;;;;;;;;;;5023153;28;19925;-76
2022/09/10 00:10:44;;;;;;;;;;;;;;;;;;5025481;28;19921;-76
2022/09/10 00:13:09;;;;;;;;;;;;;;;;;;5026000;28;19921;-76
2022/09/10 00:15:35;;;;;;;;;;;;;;;;;;5026085;28;19929;-77
2022/09/10 00:18:01;;;;;;;;;;;;;;;;;;5024615;28;19940;-77
2022/09/10 00:20:27;;;;;;;;;;;;;;;;;;5023973;28;19925;-76
2022/09/10 00:22:53;;;;;;;;;;;;;;;;;;5024968;28;19924;-76
2022/09/10 00:25:19;;;;;;;;;;;;;;;;;;5026380;28;19976;-76
2022/09/10 00:27:45;;;;;;;;;;;;;;;;;;5025131;28;19932;-76
2022/09/10 00:30:11;;;;;;;;;;;;;;;;;;5024607;28;19932;-76
2022/09/10 00:32:38;;;;;;;;;;;;;;;;;;5026270;28;19929;-76
2022/09/10 00:35:04;;;;;;;;;;;;;;;;;;5025570;28;19925;-76
2022/09/10 00:37:30;;;;;;;;;;;;;;;;;;5024408;28;20023;-76
2022/09/10 00:39:56;;;;;;;;;;;;;;;;;;5023371;28;20402;-76
2022/09/10 00:42:22;;;;;;;;;;;;;;;;;;5023985;28;20019;-76
2022/09/10 00:44:47;;;;;;;;;;;;;;;;;;5024007;28;19925;-76
2022/09/10 00:47:13;;;;;;;;;;;;;;;;;;5026634;28;19956;-76
2022/09/10 00:49:39;;;;;;;;;;;;;;;;;;5023971;28;19921;-75
2022/09/10 00:52:06;;;;;;;;;;;;;;;;;;5025017;28;19994;-75
2022/09/10 00:54:32;;;;;;;;;;;;;;;;;;5024509;28;19932;-75
2022/09/10 00:56:58;;;;;;;;;;;;;;;;;;5023120;28;19928;-76
2022/09/10 00:59:25;;;;;;;;;;;;;;;;;;5025867;28;19925;-76
2022/09/10 01:01:51;;;;;;;;;;;;;;;;;;5023372;28;19970;-75
2022/09/10 01:04:17;;;;;;;;;;;;;;;;;;5022800;28;19972;-75
2022/09/10 01:06:44;;;;;;;;;;;;;;;;;;5024296;28;20364;-76
2022/09/10 01:09:10;;;;;;;;;;;;;;;;;;5025067;28;20295;-76
2022/09/10 01:11:36;;;;;;;;;;;;;;;;;;5024778;28;19936;-76
2022/09/10 01:14:02;;;;;;;;;;;;;;;;;;5025085;28;19983;-76
2022/09/10 01:16:28;;;;;;;;;;;;;;;;;;5018052;28;20441;-76
2022/09/10 01:18:54;;;;;;;;;;;;;;;;;;5022671;28;19966;-76
2022/09/10 01:21:20;;;;;;;;;;;;;;;;;;5024009;28;19921;-76
2022/09/10 01:23:46;;;;;;;;;;;;;;;;;;5024717;28;19932;-76
2022/09/10 01:26:12;;;;;;;;;;;;;;;;;;5023759;28;19931;-76
2022/09/10 01:28:38;;;;;;;;;;;;;;;;;;5025652;28;19928;-76
2022/09/10 01:31:05;;;;;;;;;;;;;;;;;;5023577;28;19929;-76
2022/09/10 01:33:32;;;;;;;;;;;;;;;;;;5018657;28;20327;-77
2022/09/10 01:35:58;;;;;;;;;;;;;;;;;;5024633;28;19921;-76
2022/09/10 01:38:24;;;;;;;;;;;;;;;;;;5023644;28;20394;-76
2022/09/10 01:40:50;;;;;;;;;;;;;;;;;;5024340;28;19917;-76
2022/09/10 01:43:16;;;;;;;;;;;;;;;;;;5023638;28;19921;-77
2022/09/10 01:45:43;;;;;;;;;;;;;;;;;;5023536;28;19925;-76
2022/09/10 01:48:08;;;;;;;;;;;;;;;;;;5023133;28;19921;-76
2022/09/10 01:50:35;;;;;;;;;;;;;;;;;;5023647;28;19920;-76
2022/09/10 01:53:01;;;;;;;;;;;;;;;;;;5022844;28;20391;-76
2022/09/10 01:55:28;;;;;;;;;;;;;;;;;;5019673;28;19925;-76
2022/09/10 01:57:54;;;;;;;;;;;;;;;;;;5024357;28;19921;-77
2022/09/10 02:00:21;;;;;;;;;;;;;;;;;;5022907;28;20302;-76
2022/09/10 02:02:47;;;;;;;;;;;;;;;;;;5022925;28;20600;-76
2022/09/10 02:05:14;;;;;;;5.18;4.78;;;;;;;;;;5024688;28;19925;-76
2022/09/10 02:07:40;;;;;;;5.18;4.70;;;;;;;;;;5023739;28;20081;-76
2022/09/10 02:10:07;;;;;;;4.78;4.38;;;;;;;;;;5024079;28;20451;-77
2022/09/10 02:12:33;;;;;;;;;;;;;;;;;;5025009;28;20038;-76
2022/09/10 02:14:59;;;;;;;;;;;;;;;;;;5023868;28;20000;-76
2022/09/10 02:17:25;;;;;;;;;;;;;;;;;;5026863;28;20529;-77
2022/09/10 02:19:51;;;;;;;;;;;;;;;;;;5028194;28;20430;-76
2022/09/10 02:22:17;;;;;;;;;;;;;;;;;;5027755;28;19924;-76
2022/09/10 02:24:46;;;;;;;;;;;;;;;;;;5028006;28;19932;-76
2022/09/10 02:27:11;;;;;;;;;;;;;;;;;;5027556;28;19976;-76
2022/09/10 02:29:37;;;;;;;;;;;;;;;;;;5026618;28;19971;-76
2022/09/10 02:32:05;;;;;;;;;;;;;;;;;;5027725;28;20299;-76
2022/09/10 02:34:31;;;;;;;;;;;;;;;;;;5027445;28;19921;-76
2022/09/10 02:36:57;;;;;;;;;;;;;;;;;;5027043;28;20448;-76
2022/09/10 02:39:22;;;;;;;;;;;;;;;;;;5026695;28;19924;-77
2022/09/10 02:41:48;;;;;;;;;;;;;;;;;;5025899;28;19921;-77
2022/09/10 02:44:14;;;;;;;;;;;;;;;;;;5027443;28;19921;-77
2022/09/10 02:46:40;;;;;;;;;;;;;;;;;;5027635;28;19921;-76
2022/09/10 02:49:06;;;;;;;;;;;;;;;;;;5027038;28;20590;-76
2022/09/10 02:51:32;;;;;;;;;;;;;;;;;;5026502;28;19924;-77
2022/09/10 02:53:58;;;;;;;;;;;;;;;;;;5027914;28;19921;-77
2022/09/10 02:56:24;;;;;;;;;;;;;;;;;;5027147;28;20501;-76
2022/09/10 02:58:50;;;;;;;;;;;;;;;;;;5025942;28;19921;-76
2022/09/10 03:01:17;;;;;;;;;;;;;;;;;;5025873;28;19917;-76
2022/09/10 03:03:43;;;;;;;;;;;;;;;;;;5026107;28;20371;-77
2022/09/10 03:06:09;;;;;;;;;;;;;;;;;;5025675;28;19936;-77
2022/09/10 03:08:35;;;;;;;;;;;;;;;;;;5027818;28;20296;-77
2022/09/10 03:11:03;;;;;;;;;;;;;;;;;;5026416;28;20557;-77
2022/09/10 03:13:29;;;;;;;;;;;;;;;;;;5026666;28;19928;-77
2022/09/10 03:15:55;;;;;;;;;;;;;;;;;;5026078;28;19921;-76
2022/09/10 03:18:21;;;;;;;;;;;;;;;;;;5026864;28;20450;-77
2022/09/10 03:20:47;;;;;;;;;;;;;;;;;;5027232;28;19929;-77
2022/09/10 03:23:13;;;;;;;;;;;;;;;;;;5027423;28;20405;-77
2022/09/10 03:25:39;;;;;;;;;;;;;;;;;;5024439;28;19972;-77
2022/09/10 03:28:05;;;;;;;;;;;;;;;;;;5025324;28;20257;-77
2022/09/10 03:30:31;;;;;;;;;;;;;;;;;;5027535;28;20393;-76
2022/09/10 03:32:57;;;;;;;;;;;;;;;;;;5024579;28;20020;-77
2022/09/10 03:35:23;;;;;;;;;;;;;;;;;;5022381;28;19931;-77
2022/09/10 03:37:49;;;;;;;;;;;;;;;;;;5025623;28;20302;-76
2022/09/10 03:40:15;;;;;;;;;;;;;;;;;;5026287;28;20371;-76
2022/09/10 03:42:41;;;;;;;;;;;;;;;;;;5027656;28;19955;-77
2022/09/10 03:45:07;;;;;;;;;;;;;;;;;;5024168;28;19986;-76
2022/09/10 03:47:35;;;;;;;;;;;;;;;;;;5026852;28;19932;-77
2022/09/10 03:50:01;;;;;;;;;;;;;;;;;;5024515;28;20362;-76
2022/09/10 03:52:28;;;;;;;;;;;;;;;;;;5024922;28;19932;-76
2022/09/10 03:54:54;;;;;;;;;;;;;;;;;;5026367;28;19921;-76
2022/09/10 03:57:21;;;;;;;;;;;;;;;;;;5027105;28;19974;-77
2022/09/10 03:59:46;;;;;;;;;;;;;;;;;;5025852;28;19921;-77
2022/09/10 04:02:13;;;;;;;;;;;;;;;;;;5025712;28;19932;-77
2022/09/10 04:04:39;;;;;;;;;;;;;;;;;;5025245;28;19972;-77
2022/09/10 04:07:05;;;;;;;;;;;;;;;;;;5023915;28;20315;-77
2022/09/10 04:09:31;;;;;;;;;;;;;;;;;;5026418;28;19928;-77
2022/09/10 04:11:57;;;;;;;;;;;;;;;;;;5023986;28;20286;-77
2022/09/10 04:14:23;;;;;;;;;;;;;;;;;;5024569;28;19968;-78
2022/09/10 04:16:49;;;;;;;;;;;;;;;;;;5024326;28;19917;-78
2022/09/10 04:19:15;;;;;;;;;;;;;;;;;;5025903;28;19921;-78
2022/09/10 04:21:41;;;;;;;;;;;;;;;;;;5024911;28;20549;-79
2022/09/10 04:24:08;;;;;;;;;;;;;;;;;;5024299;28;19976;-79
2022/09/10 04:26:34;;;;;;;;;;;;;;;;;;5024754;28;19925;-79
2022/09/10 04:29:00;;;;;;;;;;;;;;;;;;5022496;28;20864;-79
2022/09/10 04:31:26;;;;;;;;;;;;;;;;;;5026175;28;19976;-79
2022/09/10 04:33:52;;;;;;;;;;;;;;;;;;5024514;28;20012;-78
2022/09/10 04:36:19;;;;;;;;;;;;;;;;;;5023696;28;19921;-79
2022/09/10 04:38:45;;;;;;;;;;;;;;;;;;5025895;28;19927;-78
2022/09/10 04:41:14;;;;;;;;;;;;;;;;;;5023091;28;19925;-79
2022/09/10 04:43:40;;;;;;;;;;;;;;;;;;5024103;28;19963;-79
2022/09/10 04:46:06;;;;;;;;;;;;;;;;;;5024326;28;19960;-79
2022/09/10 04:48:32;;;;;;;;;;;;;;;;;;5023702;28;20389;-79
2022/09/10 04:50:58;;;;;;;;;;;;;;;;;;5023760;28;19928;-79
2022/09/10 04:53:24;;;;;;;;;;;;;;;;;;5019470;28;19921;-79
2022/09/10 04:55:51;;;;;;;;;;;;;;;;;;5023500;28;19971;-79
2022/09/10 04:58:17;;;;;;;;;;;;;;;;;;5024304;28;19921;-79
2022/09/10 05:00:43;;;;;;;;;;;;;;;;;;5025185;28;19929;-79
2022/09/10 05:03:09;;;;;;;;;;;;;;;;;;5022940;28;20264;-79
2022/09/10 05:05:35;;;;;;;;;;;;;;;;;;5025616;28;19933;-79
2022/09/10 05:08:02;;;;;;;;;;;;;;;;;;5023563;28;19925;-79
2022/09/10 05:10:27;;;;;;;;;;;;;;;;;;5018625;28;19929;-79
2022/09/10 05:12:53;;;;;;;;;;;;;;;;;;5023769;28;20655;-79
2022/09/10 05:15:19;;;;;;;;;;;;;;;;;;5023856;28;19925;-78
2022/09/10 05:17:46;;;;;;;;;;;;;;;;;;5025121;28;19925;-79
2022/09/10 05:20:12;;;;;;;;;;;;;;;;;;5025603;28;19928;-79
2022/09/10 05:22:38;;;;;;;3.65;3.35;;;;;;;;;;5021865;28;20307;-79
2022/09/10 05:25:05;;;;;;;3.78;3.45;;;;;;;;;;5023640;28;20392;-79
2022/09/10 05:27:31;;;;;;;;;;;;;;;;;;5025109;28;19925;-79
2022/09/10 05:29:57;;;;;;;;;;;;;;;;;;5023017;28;19927;-79
2022/09/10 05:32:23;;;;;;;;;;;;;;;;;;5023447;28;19947;-79
2022/09/10 05:34:49;;;;;;;;;;;;;;;;;;5024958;28;19928;-79
2022/09/10 05:37:15;;;;;;;2.60;2.40;;;;;;;;;;5024138;28;20050;-79
2022/09/10 05:39:42;;;;;;;3.03;2.83;;;;;;;;;;5023311;28;20514;-79
2022/09/10 05:42:08;;;;;;;;;;;;;;;;;;5023796;28;20041;-79
2022/09/10 05:44:34;;;;;;;;;;;;;;;;;;5023593;28;19963;-79
2022/09/10 05:47:00;;;;;;;;;;;;;;;;;;5023453;28;19952;-79
2022/09/10 05:49:26;;;;;;;3.08;2.88;;;;;;;;;;5024420;28;19929;-79
2022/09/10 05:51:52;;;;;;;4.05;3.10;;;;;;;;;;5021144;28;20043;-79
2022/09/10 05:54:18;;;;;;;2.50;2.33;;;;;;;;;;5023873;28;20045;-79
2022/09/10 05:56:44;;;;;;;2.53;2.40;;;;;;;;;;5023565;28;20050;-79
2022/09/10 05:59:10;;;;;;;1.98;1.88;;;;;;;;;;5022525;28;20206;-79
2022/09/10 06:01:36;;;;;;;2.88;2.60;;;;;;;;;;5023193;28;20046;-78
2022/09/10 06:04:03;;;;;;;1.83;1.73;;;;;;;;;;5021386;28;20223;-78
2022/09/10 06:06:29;;;;;;;3.55;3.25;;;;;;;;;;5023381;28;20132;-79
2022/09/10 06:08:56;;;;;;;2.50;2.33;;;;;;;;;;5023771;28;20397;-78
2022/09/10 06:11:22;;;;;;;2.60;2.42;;;;;;;;;;5023435;28;20069;-78
2022/09/10 06:13:48;;;;;;;2.55;2.08;;;;;;;;;;5022402;28;20057;-78
2022/09/10 06:16:15;;;;;;;2.83;2.63;;;;;;;;;;5023241;28;21923;-78
2022/09/10 06:18:41;;;;;;;3.15;2.85;;;;;;;;;;5023635;28;20058;-79
2022/09/10 06:21:08;;;;;;;3.60;3.30;;;;;;;;;;5023116;28;20077;-78
2022/09/10 06:23:35;;;;;;;3.10;2.90;;;;;;;;;;5023998;28;20061;-78
2022/09/10 06:26:05;;;;;;;3.65;3.28;;;;;;;;;;5023440;28;20049;-78
2022/09/10 06:28:33;;;;;;;3.03;2.83;;;;;;;;;;5020625;28;20045;-78
2022/09/10 06:31:00;;;;;;;7.20;6.30;;;;;;;;;;5023516;28;20099;-79
2022/09/10 06:33:26;;;;;;;6.00;5.13;;;;;;;;;;5024078;28;20048;-79
2022/09/10 06:35:53;;;;;;;4.45;4.13;;;;;;;;;;5022306;28;20092;-78
2022/09/10 06:38:19;;;;;;;4.57;4.15;;;;;;;;;;5013144;28;20133;-78
2022/09/10 06:40:53;;;;;;;4.00;3.70;;;;;;;;;;5023029;28;20128;-78
2022/09/10 06:43:19;;;;;;;4.88;4.47;;;;;;;;;;5021774;28;20053;-78
2022/09/10 06:45:45;;;;;;;6.00;5.57;;;;;;;;;;5023445;28;20045;-79
2022/09/10 06:48:11;;;;;;;5.75;4.13;;;;;;;;;;5021648;28;20060;-78
2022/09/10 06:50:37;;;;;;;2.88;2.67;;;;;;;;;;5016822;28;20277;-79
2022/09/10 06:53:03;;;;;;;3.58;3.30;;;;;;;;;;5020261;28;20048;-79
2022/09/10 06:55:29;;;;;;;3.35;3.15;;;;;;;;;;5021837;28;20231;-78
2022/09/10 06:57:55;;;;;;;2.85;2.65;;;;;;;;;;5023051;28;20495;-78
2022/09/10 07:00:21;;;;;;;5.22;4.82;;;;;;;;;;5022437;28;20044;-79
2022/09/10 07:02:49;;;;;;;4.10;3.80;;;;;;;;;;5022070;28;20042;-78
2022/09/10 07:05:15;;;;;;;4.22;3.90;;;;;;;;;;5027162;28;20041;-79
2022/09/10 07:07:42;;;;;;;4.15;3.65;;;;;;;;;;5026484;28;20132;-78
2022/09/10 07:10:08;;;;;;;5.50;5.00;;;;;;;;;;5023999;28;20084;-78
2022/09/10 07:12:34;;;;;;;;;;;;;;;;;;5025206;28;20050;-78
2022/09/10 07:15:00;;;;;;;;;;;;;;;;;;5019913;28;19939;-79
2022/09/10 07:17:26;;;;;;;;;;;;;;;;;;5025744;28;20314;-79
2022/09/10 07:19:52;;;;;;;;;;;;;;;;;;5023728;28;19932;-79
2022/09/10 07:22:18;;;;;;;;;;;;;;;;;;5027056;28;19929;-78
2022/09/10 07:24:44;;;;;;;;;;;;;;;;;;5025376;28;19986;-79
2022/09/10 07:27:10;;;;;;;;;;;;;;;;;;5026766;28;20016;-78
2022/09/10 07:29:36;;;;;;;;;;;;;;;;;;5025512;28;20015;-78
2022/09/10 07:32:03;;;;;;;4.20;3.90;;;;;;;;;;5021459;28;19928;-79
2022/09/10 07:34:29;;;;;;;4.82;4.45;;;;;;;;;;5026454;28;20076;-79
2022/09/10 07:36:55;;;;;;;5.75;5.15;;;;;;;;;;5027278;28;20041;-79
2022/09/10 07:39:22;;;;;;;4.85;4.35;;;;;;;;;;5025579;28;20528;-79
2022/09/10 07:41:48;;;;;;;3.97;3.63;;;;;;;;;;5025824;28;20073;-79
2022/09/10 07:44:14;;;;;;;3.27;3.07;;;;;;;;;;5025832;28;20049;-78
2022/09/10 07:46:41;;;;;;;3.15;2.95;;;;;;;;;;5026259;28;19921;-79
2022/09/10 07:49:09;;;;;;;3.45;3.15;;;;;;;;;;5026861;28;20061;-79
2022/09/10 07:51:35;;;;;;;3.20;2.90;;;;;;;;;;5025092;28;20053;-78
2022/09/10 07:54:02;;;;;;;3.13;2.92;;;;;;;;;;5025109;28;20111;-79
2022/09/10 07:56:31;;;;;;;4.55;4.15;;;;;;;;;;5026814;28;20738;-79
2022/09/10 07:58:57;;;;;;;3.70;3.40;;;;;;;;;;5025536;28;20064;-79
2022/09/10 08:01:23;;;;;;;4.53;4.10;;;;;;;;;;5026592;28;20041;-79
2022/09/10 08:03:49;;;;;;;7.70;7.00;;;;;;;;;;5025146;28;20041;-79
2022/09/10 08:06:16;;;;;;;8.25;7.05;;;;;;;;;;5026670;28;20085;-79
2022/09/10 08:08:42;;;;;;;9.10;7.50;;;;;;;;;;5026189;28;20049;-79
2022/09/10 08:11:12;;;;;;;5.82;5.28;;;;;;;;;;5024226;28;20494;-79
2022/09/10 08:13:43;;;;;;;7.50;6.78;;;;;;;;;;5025642;28;20053;-79
2022/09/10 08:16:11;;;;;;;5.43;4.90;;;;;;;;;;5024216;28;20077;-79
2022/09/10 08:18:37;;;;;;;4.45;4.00;;;;;;;;;;5023425;28;20045;-80
2022/09/10 08:21:04;;;;;;;3.35;3.05;;;;;;;;;;5024361;28;20060;-65
2022/09/10 08:23:30;;;;;;;4.80;4.40;;;;;;;;;;5026039;28;20038;-62
2022/09/10 08:25:57;;;;;;;6.07;5.53;;;;;;;;;;5024120;28;20045;-69
2022/09/10 08:28:23;;;;;;;6.35;5.75;;;;;;;;;;5025333;28;20054;-69
2022/09/10 08:30:56;;;;;;;6.75;5.95;;;;;;;;;;5025673;28;20427;-66
2022/09/10 08:33:23;;;;;;;9.75;8.48;;;;;;;;;;5026067;28;20049;-76
2022/09/10 08:35:56;;;;;;;7.03;6.20;;;;;;;;;;5023657;28;20099;-76
2022/09/10 08:38:25;;;;;;;4.90;4.50;;;;;;;;;;5022196;28;20048;-80
2022/09/10 08:40:53;;;;;;;4.20;3.80;;;;;;;;;;5024897;28;20041;-74
2022/09/10 08:43:41;;;;;;;3.92;3.63;;;;;;;;;;5024560;28;20046;-72
2022/09/10 08:46:12;;;;;;;3.17;2.90;;;;;;;;;;5015554;28;20053;-73
2022/09/10 08:48:39;;;;;;;3.33;3.13;;;;;;;;;;5019054;28;19932;-74
2022/09/10 08:51:11;;;;;;;3.75;3.45;;;;;;;;;;5018610;28;20046;-73
2022/09/10 08:53:43;;;;;;;4.57;4.10;;;;;;;;;;5020348;28;20048;-73
2022/09/10 08:56:20;;;;;;;4.53;3.85;;;;;;;;;;5018967;28;20100;-74
2022/09/10 08:58:46;;;;;;;3.85;3.55;;;;;;;;;;5019621;28;20049;-68
2022/09/10 09:01:23;;;;;;;3.53;3.22;;;;;;;;;;5025574;28;20119;-69
2022/09/10 09:03:51;;;;;;;2.80;2.35;;;;;;;;;;5022854;28;20874;-69
2022/09/10 09:06:20;;;;;;;3.22;2.80;;;;;;;;;;5017854;28;20065;-70
2022/09/10 09:08:47;;;;;;;3.28;2.97;;;;;;;;;;5022705;28;20064;-70
2022/09/10 09:11:33;;;;;;;4.53;3.25;;;;;;;;;;5023426;28;20042;-70
2022/09/10 09:14:02;;;;;;;3.83;3.15;;;;;;;;;;5024246;28;20049;-70
2022/09/10 09:16:28;;;;;;;3.63;2.17;;;;;;;;;;5018620;28;20091;-70
2022/09/10 09:19:13;;;;;;;2.70;2.50;;;;;;;;;;5019383;28;20076;-70
2022/09/10 09:21:40;;;;;;;2.28;2.08;;;;;;;;;;5010076;28;20499;-70
2022/09/10 09:24:21;;;;;;;1.98;1.85;;;;;;;;;;5023264;28;20049;-70
2022/09/10 09:26:48;;;;;;;2.95;2.60;;;;;;;;;;5024097;28;20052;-69
2022/09/10 09:29:23;;;;;;;2.22;2.10;;;;;;;;;;5024833;28;20037;-72
2022/09/10 09:31:51;;;;;;;2.00;1.90;;;;;;;;;;5022872;28;20780;-72
2022/09/10 09:34:18;;;;;;;1.60;1.50;;;;;;;;;;5022093;28;20050;-72
2022/09/10 09:36:48;;;;;;;1.60;1.50;;;;;;;;;;5024556;28;20053;-72
2022/09/10 09:39:19;;;;;;;2.10;1.85;;;;;;;;;;5024096;28;20456;-72
2022/09/10 09:41:48;;;;;;;2.85;2.17;;;;;;;;;;5022816;28;20037;-72
2022/09/10 09:44:28;;;;;;;3.20;3.00;;;;;;;;;;5021104;28;20053;-72
2022/09/10 09:46:55;;;;;;;2.53;2.33;;;;;;;;;;5023437;28;20128;-72
2022/09/10 09:49:22;;;;;;;2.42;2.22;;;;;;;;;;5022722;28;20391;-72
2022/09/10 09:51:50;;;;;;;2.70;2.50;;;;;;;;;;5023504;28;20079;-72
2022/09/10 09:54:19;;;;;;;3.15;2.95;;;;;;;;;;5022793;28;20045;-72
2022/09/10 09:56:48;;;;;;;2.80;2.60;;;;;;;;;;5022149;28;20515;-70
2022/09/10 09:59:23;;;;;;;3.40;2.50;;;;;;;;;;5021280;28;20634;-71
2022/09/10 10:01:50;;;;;;;3.22;2.88;;;;;;;;;;5020897;28;20041;-71
2022/09/10 10:04:24;;;;;;;2.28;2.08;;;;;;;;;;5022842;28;20049;-71
2022/09/10 10:07:01;;;;;;;3.00;2.78;;;;;;;;;;5022668;28;20050;-72
2022/09/10 10:09:28;;;;;;;3.38;3.08;;;;;;;;;;5023935;28;20073;-71
2022/09/10 10:12:04;;;;;;;3.53;3.00;;;;;;;;;;5024201;28;20053;-71
2022/09/10 10:14:42;;;;;;;2.78;2.53;;;;;;;;;;5024987;28;20049;-71
2022/09/10 10:17:20;;;;;;;2.35;2.15;;;;;;;;;;5023224;28;20415;-72
2022/09/10 10:19:57;;;;;;;2.95;2.72;;;;;;;;;;5022860;28;20049;-71
2022/09/10 10:22:25;;;;;;;2.65;2.40;;;;;;;;;;5022904;28;20058;-72
2022/09/10 10:24:52;;;;;;;3.78;3.45;;;;;;;;;;5024593;28;20447;-72
2022/09/10 10:27:26;;;;;;;2.40;2.20;;;;;;;;;;5022958;28;20056;-72
2022/09/10 10:29:59;;;;;;;2.88;2.47;;;;;;;;;;5024665;28;20080;-72
2022/09/10 10:32:33;;;;;;;2.60;2.40;;;;;;;;;;5020485;28;20053;-72
2022/09/10 10:35:15;;;;;;;2.78;2.58;;;;;;;;;;5006170;28;20046;-72
2022/09/10 10:37:47;;;;;;;2.55;2.35;;;;;;;;;;5025726;28;20053;-72
2022/09/10 10:40:13;;;;;;;;;;;;;;;;;;5009356;28;20702;-71
2022/09/10 10:42:49;;;;;;;3.55;2.83;;;;;;;;;;5012137;28;19917;-72
2022/09/10 10:45:36;;;;;;;2.45;2.25;;;;;;;;;;5017884;28;20113;-72
2022/09/10 10:48:20;;;;;;;2.47;2.28;;;;;;;;;;5020539;28;20049;-72
2022/09/10 10:51:05;;;;;;;2.10;1.85;;;;;;;;;;5019359;28;20124;-73
2022/09/10 10:53:39;;;;;;;2.80;2.60;;;;;;;;;;5036911;28;20061;-73
2022/09/10 10:56:13;;;;;;;2.83;2.63;;;;;;;;;;5025829;28;20245;-72
2022/09/10 10:58:58;;;;;;;2.10;2.00;;;;;;;;;;5028302;28;20045;-73
2022/09/10 11:01:25;;;;;;;3.65;3.33;;;;;;;;;;5026672;28;20053;-73
2022/09/10 11:04:09;;;;;;;4.28;2.97;;;;;;;;;;5018199;28;20041;-73
2022/09/10 11:06:41;;;;;;;2.63;2.42;;;;;;;;;;5008986;28;20069;-74
2022/09/10 11:09:12;;;;;;;2.30;2.10;;;;;;;;;;5020595;28;20104;-72
2022/09/10 11:11:48;;;;;;;2.50;2.30;;;;;;;;;;5017459;28;20137;-72
2022/09/10 11:14:29;;;;;;;4.00;2.78;;;;;;;;;;5025093;28;20045;-73
2022/09/10 11:16:58;;;;;;;4.15;3.50;;;;;;;;;;5021247;28;20072;-72
2022/09/10 11:19:27;;;;;;;2.88;2.67;;;;;;;;;;5016945;28;20045;-72
2022/09/10 11:21:57;;;;;;;3.25;2.95;;;;;;;;;;5018582;28;20104;-72
2022/09/10 11:24:26;;;;;;;3.47;3.28;;;;;;;;;;5012685;28;20053;-72
2022/09/10 11:27:11;;;;;;;3.15;2.95;;;;;;;;;;5021106;28;20046;-72
2022/09/10 11:29:47;;;;;;;4.15;3.85;;;;;;;;;;5021887;28;20045;-72
2022/09/10 11:32:33;;;;;;;2.80;2.60;;;;;;;;;;5012743;28;20049;-72
2022/09/10 11:34:59;;;;;;;2.60;2.50;;;;;;;;;;5023099;28;20054;-72
2022/09/10 11:37:28;;;;;;;2.80;2.60;;;;;;;;;;5015805;28;20041;-72
2022/09/10 11:39:58;;;;;;;2.92;2.70;;;;;;;;;;5019817;28;20059;-72
2022/09/10 11:42:27;;;;;;;3.40;2.55;;;;;;;;;;5015966;28;20125;-72
2022/09/10 11:44:53;;;;;;;2.60;2.40;;;;;;;;;;5021330;28;20064;-72
2022/09/10 11:47:24;;;;;;;2.40;2.20;;;;;;;;;;5013681;28;20395;-72
2022/09/10 11:49:58;;;;;;;3.42;3.13;;;;;;;;;;5021601;28;20133;-73
2022/09/10 11:52:25;;;;;;;2.92;2.50;;;;;;;;;;5017054;28;20057;-72
2022/09/10 11:54:51;;;;;;;3.30;2.80;;;;;;;;;;5026815;28;20052;-72
2022/09/10 11:57:25;;;;;;;3.22;2.67;;;;;;;;;;5025623;28;20148;-72
2022/09/10 12:00:04;;;;;;;1.90;1.73;;;;;;;;;;5025764;28;20057;-72
2022/09/10 12:02:49;;;;;;;2.05;1.95;;;;;;;;;;5025901;28;20056;-72
2022/09/10 12:05:22;;;;;;;1.40;1.30;;;;;;;;;;5024945;28;20088;-72
2022/09/10 12:08:00;;;;;;;2.70;2.47;;;;;;;;;;5026509;28;20132;-72
2022/09/10 12:10:30;;;;;;;3.20;2.85;;;;;;;;;;5025895;28;20492;-72
2022/09/10 12:12:57;;;;;;;2.50;2.30;;;;;;;;;;5025519;28;20045;-72
2022/09/10 12:15:24;;;;;;;3.55;3.22;;;;;;;;;;5027194;28;20449;-72
2022/09/10 12:17:55;;;;;;;3.10;2.30;;;;;;;;;;5026251;28;20049;-72
2022/09/10 12:20:29;;;;;;;1.88;1.77;;;;;;;;;;5023422;28;20433;-72
2022/09/10 12:22:56;;;;;;;2.20;2.10;;;;;;;;;;5011347;28;20065;-72
2022/09/10 12:25:24;;;;;;;2.10;2.00;;;;;;;;;;5025658;28;20064;-72
2022/09/10 12:27:58;;;;;;;1.40;1.30;;;;;;;;;;5025912;28;20061;-72
2022/09/10 12:30:24;;;;;;;1.85;1.75;;;;;;;;;;5026822;28;20056;-73
2022/09/10 12:32:54;;;;;;;2.25;2.05;;;;;;;;;;5025454;28;20045;-72
2022/09/10 12:35:29;;;;;;;2.70;2.38;;;;;;;;;;5025217;28;20049;-72
2022/09/10 12:38:14;;;;;;;2.05;1.95;;;;;;;;;;5024262;28;20050;-72
2022/09/10 12:40:48;;;;;;;1.50;1.40;;;;;;;;;;5019375;28;20133;-73
2022/09/10 12:43:33;;;;;;;2.05;1.92;;;;;;;;;;5018244;28;20694;-72
2022/09/10 12:46:08;;;;;;;1.52;1.42;;;;;;;;;;5018524;28;20045;-72
2022/09/10 12:48:50;;;;;;;1.50;1.40;;;;;;;;;;5016084;28;20049;-72
2022/09/10 12:51:19;;;;;;;2.17;1.98;;;;;;;;;;5014815;28;20058;-72
2022/09/10 12:53:48;;;;;;;1.77;1.60;;;;;;;;;;5016079;28;20053;-72
2022/09/10 12:56:24;;;;;;;2.95;1.65;;;;;;;;;;5017648;28;20057;-72
2022/09/10 12:59:26;;;;;;;1.83;1.73;;;;;;;;;;5012231;28;20313;-72
2022/09/10 13:01:52;;;;;;;2.10;1.63;;;;;;;;;;4940728;28;20057;-73
2022/09/10 13:04:27;;;;;;;1.92;1.77;;;;;;;;;;5009453;28;20054;-72
2022/09/10 13:06:54;;;;;;;2.10;1.95;;;;;;;;;;5013543;28;20068;-72
2022/09/10 13:09:23;;;;;;;1.38;1.27;;;;;;;;;;5019969;28;20065;-72
2022/09/10 13:11:51;;;;;;;1.70;1.25;;;;;;;;;;5007176;28;20119;-73
2022/09/10 13:14:23;;;;;;;1.67;1.58;;;;;;;;;;5014250;28;20060;-72
2022/09/10 13:16:49;;;;;;;1.60;1.50;;;;;;;;;;5018668;28;20060;-72
2022/09/10 13:19:16;;;;;;;1.90;1.80;;;;;;;;;;5018084;28;20057;-72
2022/09/10 13:21:42;;;;;;;1.77;1.67;;;;;;;;;;5020801;28;20520;-72
2022/09/10 13:24:30;;;;;;;3.13;1.90;;;;;;;;;;5013409;28;20056;-72
2022/09/10 13:27:02;;;;;;;3.15;2.17;;;;;;;;;;5017521;28;20053;-72
2022/09/10 13:29:33;;;;;;;1.60;1.50;;;;;;;;;;5016016;28;20710;-72
2022/09/10 13:31:59;;;;;;;2.95;2.28;;;;;;;;;;5016222;28;20045;-72
2022/09/10 13:34:28;;;;;;;2.03;1.60;;;;;;;;;;5023464;28;20521;-72
2022/09/10 13:36:57;;;;;;;1.63;1.52;;;;;;;;;;5014940;28;20081;-72
2022/09/10 13:39:35;;;;;;;1.15;1.05;;;;;;;;;;5005716;28;20065;-72
2022/09/10 13:42:02;;;;;;;1.17;1.08;;;;;;;;;;5007028;28;20103;-72
2022/09/10 13:44:31;;;;;;;1.35;1.23;;;;;;;;;;5020414;28;20053;-72
2022/09/10 13:46:58;;;;;;;0.90;0.90;;;;;;;;;;5009821;28;20038;-72
2022/09/10 13:49:36;;;;;;;1.83;1.55;;;;;;;;;;5009266;28;20054;-72
2022/09/10 13:52:04;;;;;;;2.83;1.75;;;;;;;;;;5017507;28;20045;-72
2022/09/10 13:54:33;;;;;;;1.95;1.83;;;;;;;;;;5019584;28;20488;-72
2022/09/10 13:57:05;;;;;;;4.10;3.70;;;;;;;;;;5006357;28;20547;-72
2022/09/10 13:59:33;;;;;;;5.47;5.05;;;;;;;;;;5008494;28;20416;-72
2022/09/10 14:01:58;;;;;;;5.22;3.97;;;;;;;;;;5017201;28;20522;-71
2022/09/10 14:04:29;;;;;;;5.10;4.60;;;;;;;;;;5028508;28;20119;-72
2022/09/10 14:06:57;;;;;;;6.00;5.45;;;;;;;;;;5017318;28;20092;-71
2022/09/10 14:09:25;;;;;;;8.32;7.63;;;;;;;;;;5023242;28;20049;-70
2022/09/10 14:11:51;;;;;;;8.77;7.97;;;;;;;;;;5011640;28;20042;-72
2022/09/10 14:14:19;;;;;;;6.95;6.35;;;;;;;;;;5020025;28;20045;-72
2022/09/10 14:16:50;;;;;;;7.72;7.13;;;;;;;;;;5016865;28;20504;-72
2022/09/10 14:19:19;;;;;;;7.60;6.90;;;;;;;;;;5024742;28;20041;-73
2022/09/10 14:21:50;;;;;;;6.47;5.88;;;;;;;;;;5019558;28;20046;-73
2022/09/10 14:24:34;;;;;;;5.50;5.10;;;;;;;;;;5021353;28;20130;-73
2022/09/10 14:27:04;;;;;;;5.65;5.13;;;;;;;;;;5020970;28;20057;-72
2022/09/10 14:29:30;;;;;;;5.50;5.00;;;;;;;;;;5026133;28;20041;-72
2022/09/10 14:31:56;;;;;;;4.43;4.13;;;;;;;;;;5020841;28;20428;-73
2022/09/10 14:34:24;;;;;;;4.93;4.53;;;;;;;;;;5024590;28;20044;-73
2022/09/10 14:36:51;;;;;;;4.93;4.53;;;;;;;;;;5016421;28;20057;-73
2022/09/10 14:39:21;;;;;;;3.15;2.90;;;;;;;;;;5019305;28;20044;-73
2022/09/10 14:41:48;;;;;;;3.95;3.42;;;;;;;;;;5018501;28;20045;-73
2022/09/10 14:44:23;;;;;;;3.30;3.00;;;;;;;;;;5026931;28;20053;-73
2022/09/10 14:46:56;;;;;;;2.50;2.38;;;;;;;;;;5018364;28;20046;-73
2022/09/10 14:49:26;;;;;;;3.10;2.90;;;;;;;;;;5043154;28;20652;-72
2022/09/10 14:51:52;;;;;;;2.67;2.47;;;;;;;;;;5019004;28;20053;-73
2022/09/10 14:54:18;;;;;;;2.60;2.40;;;;;;;;;;5019894;28;20128;-73
2022/09/10 14:56:45;;;;;;;1.70;1.60;;;;;;;;;;5020118;28;20141;-73
2022/09/10 14:59:13;;;;;;;2.30;2.10;;;;;;;;;;5022443;28;20080;-73
2022/09/10 15:01:40;;;;;;;2.25;1.90;;;;;;;;;;5021973;28;20046;-73
2022/09/10 15:04:06;;;;;;;2.08;1.98;;;;;;;;;;5024584;28;20069;-72
2022/09/10 15:06:32;;;;;;;3.63;3.33;;;;;;;;;;5022759;28;20053;-73
2022/09/10 15:08:59;;;;;;;4.47;3.90;;;;;;;;;;5025074;28;20373;-73
2022/09/10 15:11:27;;;;;;;3.10;2.90;;;;;;;;;;5015926;28;20439;-73
2022/09/10 15:13:54;;;;;;;3.88;3.58;;;;;;;;;;5023408;28;20045;-73
2022/09/10 15:16:22;;;;;;;3.58;3.22;;;;;;;;;;5024444;28;20685;-72
2022/09/10 15:18:48;;;;;;;2.90;2.70;;;;;;;;;;5020601;28;20650;-72
2022/09/10 15:21:14;;;;;;;2.78;2.58;;;;;;;;;;5011764;28;20156;-72
2022/09/10 15:23:40;;;;;;;2.13;2.00;;;;;;;;;;5017210;28;20132;-73
2022/09/10 15:26:10;;;;;;;2.60;2.40;;;;;;;;;;5016821;28;20054;-72
2022/09/10 15:28:36;;;;;;;3.00;2.80;;;;;;;;;;5025034;28;20056;-72
2022/09/10 15:31:02;;;;;;;5.63;5.00;;;;;;;;;;5023337;28;20045;-72
2022/09/10 15:33:28;;;;;;;3.60;3.17;;;;;;;;;;5018424;28;20068;-72
2022/09/10 15:35:54;;;;;;;3.22;2.58;;;;;;;;;;5018267;28;20407;-72